Main page
METAR-TAF:

METAR-TAF

Airports :

Dubai International Airport

Dubai, United Arab Emirates

latitude: 25-15-10N, longitude: 055-21-52E, elevation: 8 m

Current weather observation

The report was made 53 minutes ago, at 05:00 UTC
Wind 6 kt from the South
Temperature 16°C
Humidity 68%
Pressure 1021 hPa
Visibility 10 km or more
Scattered clouds at a height of 4800 ft

METAR: OMDB 270500Z 17006KT 9999 SCT048 16/10 Q1021 NOSIG

Time: 09:53 (05:53 UTC)

Forecast

The report was made 1 hour and 0 minutes ago, at 04:53 UTC
Forecast valid from 27 at 06 UTC to 28 at 12 UTC
Wind 7 kt from the West/Southwest
Visibility 10 km or more
Scattered clouds at a height of 4500 ft
Becoming
from 27 at 06 UTC to 27 at 08 UTC
Wind 12 kt from the West/Northwest
Becoming
from 27 at 18 UTC to 27 at 20 UTC
Wind 7 kt from the South
Becoming
from 28 at 09 UTC to 28 at 11 UTC
Wind 10 kt from the Northwest

TAF: OMDB 270453Z 2706/2812 24007KT 9999 SCT045 BECMG 2706/2708 30012KT BECMG 2718/2720 17007KT BECMG 2809/2811 32010KT

Weather observations and forecasts of more than 4000 airports (METAR and TAF reports).

The available stations are represented by yellow and red dots on the map.

Hover mouse over dot to see the name of the station.

Then click to see weather observations and forecasts.

To change the map : click on the green buttons with a black cross to zoom in, on the green button with a dash to zoom out, or on the green arrows for adjacent maps.


METAR-TAF: